createdAt,value
2022-12-25T00:01:22.468Z,84.71
2022-12-25T00:04:11.798Z,85.70
2022-12-25T00:06:53.318Z,85.38
2022-12-25T00:09:41.728Z,85.98
2022-12-25T00:12:24.333Z,86.17
2022-12-25T00:15:14.352Z,84.89
2022-12-25T00:18:03.427Z,85.08
2022-12-25T00:20:52.387Z,85.91
2022-12-25T00:23:35.666Z,85.03
2022-12-25T00:26:26.295Z,84.35
2022-12-25T00:29:08.621Z,84.65
2022-12-25T00:31:57.487Z,84.67
2022-12-25T00:34:39.721Z,85.25
2022-12-25T00:37:28.256Z,85.16
2022-12-25T00:40:10.698Z,84.97
2022-12-25T00:42:59.288Z,86.26
2022-12-25T00:45:47.705Z,86.89
2022-12-25T00:48:30.275Z,87.05
2022-12-25T00:51:20.604Z,86.47
2022-12-25T00:54:03.394Z,85.33
2022-12-25T00:56:51.668Z,85.75
2022-12-25T00:59:33.471Z,85.86
2022-12-25T01:02:24.744Z,85.42
2022-12-25T01:05:06.233Z,85.35
2022-12-25T01:07:48.605Z,85.39
2022-12-25T01:10:37.282Z,85.74
2022-12-25T01:13:19.511Z,84.86
2022-12-25T01:16:08.380Z,85.30
2022-12-25T01:18:50.612Z,84.99
2022-12-25T01:21:39.277Z,83.65
2022-12-25T01:24:21.493Z,83.19
2022-12-25T01:27:10.307Z,84.00
2022-12-25T01:29:52.588Z,84.05
2022-12-25T01:32:41.384Z,84.23
2022-12-25T01:35:29.594Z,85.17
2022-12-25T01:38:11.348Z,85.18
2022-12-25T01:41:00.251Z,84.96
2022-12-25T01:43:49.272Z,84.68
2022-12-25T01:46:33.479Z,83.90
2022-12-25T01:49:31.298Z,83.75
2022-12-25T01:52:24.329Z,83.21
2022-12-25T01:55:12.493Z,84.23
2022-12-25T01:58:01.268Z,83.35
2022-12-25T02:00:51.465Z,83.79
2022-12-25T02:03:33.677Z,83.90
2022-12-25T02:06:23.357Z,85.22
2022-12-25T02:09:12.275Z,84.58
2022-12-25T02:12:07.379Z,84.22
2022-12-25T02:14:52.303Z,83.65
2022-12-25T02:17:58.340Z,82.72
2022-12-25T02:21:05.103Z,84.31
2022-12-25T02:23:57.278Z,83.67
2022-12-25T02:27:01.586Z,84.68
2022-12-25T02:30:07.336Z,85.50
2022-12-25T02:33:27.949Z,84.54
2022-12-25T02:36:15.392Z,85.45
2022-12-25T02:39:33.316Z,85.41
2022-12-25T02:42:29.430Z,84.20
2022-12-25T02:45:36.895Z,85.17
2022-12-25T02:48:39.341Z,83.86
2022-12-25T02:51:50.207Z,84.62
2022-12-25T02:55:04.631Z,84.46
2022-12-25T02:58:15.247Z,84.85
2022-12-25T03:01:31.575Z,86.06
2022-12-25T03:04:35.458Z,84.20
2022-12-25T03:07:27.212Z,83.76
2022-12-25T03:10:39.585Z,84.36
2022-12-25T03:13:27.335Z,84.43
2022-12-25T03:16:27.888Z,84.39
2022-12-25T03:19:35.340Z,83.68
2022-12-25T03:22:43.495Z,83.89
2022-12-25T03:25:51.253Z,83.95
2022-12-25T03:28:33.563Z,83.97
2022-12-25T03:31:40.330Z,85.13
2022-12-25T03:35:06.560Z,83.55
2022-12-25T03:38:17.289Z,83.35
2022-12-25T03:41:33.387Z,83.97
2022-12-25T03:45:12.235Z,83.96
2022-12-25T03:48:35.324Z,84.57
2022-12-25T03:51:40.891Z,84.25
2022-12-25T03:54:52.659Z,83.94
2022-12-25T03:57:53.002Z,81.97
2022-12-25T04:01:00.566Z,82.35
2022-12-25T04:04:07.349Z,82.39
2022-12-25T04:07:07.556Z,82.30
2022-12-25T04:10:15.280Z,81.05
2022-12-25T04:13:15.532Z,81.35
2022-12-25T04:16:35.300Z,81.03
2022-12-25T04:19:42.277Z,80.83
2022-12-25T04:22:43.196Z,80.75
2022-12-25T04:25:50.422Z,80.40
2022-12-25T04:28:51.099Z,80.93
2022-12-25T04:31:58.368Z,80.74
2022-12-25T04:35:05.334Z,81.38
2022-12-25T04:37:47.529Z,81.65
2022-12-25T04:40:36.318Z,80.77
2022-12-25T04:43:25.334Z,79.77
2022-12-25T04:46:14.587Z,78.97
2022-12-25T04:48:56.237Z,78.66
2022-12-25T04:51:46.327Z,79.39
2022-12-25T04:54:28.624Z,78.74
2022-12-25T04:57:17.386Z,78.30
2022-12-25T04:59:59.786Z,77.83
2022-12-25T05:02:48.402Z,77.93
2022-12-25T05:05:30.595Z,77.74
2022-12-25T05:08:19.367Z,77.93
2022-12-25T05:11:08.692Z,77.20
2022-12-25T05:13:56.600Z,77.99
2022-12-25T05:16:38.317Z,76.97
2022-12-25T05:19:28.030Z,76.81
2022-12-25T05:22:10.283Z,76.84
2022-12-25T05:24:52.586Z,76.61
2022-12-25T05:27:41.278Z,75.99
2022-12-25T05:30:30.207Z,76.41
2022-12-25T05:33:12.627Z,75.39
2022-12-25T05:36:01.235Z,74.30
2022-12-25T05:38:44.594Z,76.04
2022-12-25T05:41:34.680Z,75.50
2022-12-25T05:44:29.155Z,75.83
2022-12-25T05:47:18.397Z,75.17
2022-12-25T05:50:00.689Z,75.12
2022-12-25T05:52:50.223Z,72.94
2022-12-25T05:55:39.372Z,73.51
2022-12-25T05:58:27.573Z,72.46
2022-12-25T06:01:10.405Z,73.27
2022-12-25T06:04:00.726Z,73.01
2022-12-25T06:06:42.361Z,71.61
2022-12-25T06:09:24.491Z,71.58
2022-12-25T06:12:13.351Z,69.02
2022-12-25T06:15:02.176Z,68.87
2022-12-25T06:17:51.339Z,68.98
2022-12-25T06:20:40.050Z,68.16
2022-12-25T06:23:23.452Z,68.12
2022-12-25T06:26:14.603Z,67.56
2022-12-25T06:28:57.305Z,65.94
2022-12-25T06:31:39.593Z,65.34
2022-12-25T06:34:28.147Z,66.44
2022-12-25T06:37:17.585Z,66.01
2022-12-25T06:39:59.355Z,66.61
2022-12-25T06:42:47.514Z,66.95
2022-12-25T06:45:36.483Z,64.71
2022-12-25T06:48:18.527Z,64.61
2022-12-25T06:51:07.411Z,63.37
2022-12-25T06:53:49.564Z,63.14
2022-12-25T06:56:39.390Z,63.17
2022-12-25T06:59:28.307Z,62.10
2022-12-25T07:02:24.766Z,62.97
2022-12-25T07:05:08.240Z,63.90
2022-12-25T07:07:50.473Z,63.52
2022-12-25T07:10:39.304Z,64.26
2022-12-25T07:13:28.615Z,64.10
2022-12-25T07:16:12.222Z,63.33
2022-12-25T07:19:00.637Z,62.37
2022-12-25T07:21:43.272Z,62.36
2022-12-25T07:24:32.614Z,61.06
2022-12-25T07:27:16.397Z,60.90
2022-12-25T07:30:04.605Z,61.54
2022-12-25T07:32:50.257Z,62.42
2022-12-25T07:35:38.595Z,61.00
2022-12-25T07:38:21.355Z,61.52
2022-12-25T07:41:09.642Z,61.66
2022-12-25T07:43:52.326Z,62.35
2022-12-25T07:46:40.531Z,62.77
2022-12-25T07:49:23.289Z,61.15
2022-12-25T07:52:05.649Z,61.56
2022-12-25T07:54:54.273Z,60.42
2022-12-25T07:57:42.591Z,60.41
2022-12-25T08:00:25.323Z,59.92
2022-12-25T08:03:17.092Z,61.29
2022-12-25T08:05:59.206Z,59.81
2022-12-25T08:08:47.595Z,59.64
2022-12-25T08:11:30.396Z,59.27
2022-12-25T08:14:12.460Z,58.56
2022-12-25T08:17:01.390Z,58.59
2022-12-25T08:19:50.191Z,58.31
2022-12-25T08:22:39.334Z,57.42
2022-12-25T08:25:28.387Z,57.60
2022-12-25T08:28:10.501Z,57.47
2022-12-25T08:30:59.296Z,57.33
2022-12-25T08:33:41.604Z,57.73
2022-12-25T08:36:31.237Z,58.69
2022-12-25T08:39:20.323Z,59.23
2022-12-25T08:42:08.541Z,57.29
2022-12-25T08:44:50.271Z,56.83
2022-12-25T08:47:38.499Z,57.83
2022-12-25T08:50:20.342Z,56.50
2022-12-25T08:53:08.548Z,56.87
2022-12-25T08:55:51.312Z,56.85
2022-12-25T08:58:40.503Z,56.73
2022-12-25T09:01:23.442Z,57.92
2022-12-25T09:04:11.614Z,57.91
2022-12-25T09:06:53.175Z,56.94
2022-12-25T09:09:43.344Z,57.23
2022-12-25T09:12:25.528Z,57.99
2022-12-25T09:15:15.344Z,57.68
2022-12-25T09:17:57.503Z,57.65
2022-12-25T09:20:46.262Z,58.13
2022-12-25T09:23:35.173Z,59.81
2022-12-25T09:26:25.646Z,59.56
2022-12-25T09:29:08.355Z,59.79
2022-12-25T09:31:56.521Z,61.12
2022-12-25T09:34:39.279Z,60.82
2022-12-25T09:37:28.309Z,58.97
2022-12-25T09:40:18.315Z,59.34
2022-12-25T09:43:08.485Z,61.16
2022-12-25T09:45:57.238Z,59.71
2022-12-25T09:48:43.619Z,60.22
2022-12-25T09:51:36.108Z,59.22
2022-12-25T09:54:36.594Z,61.58
2022-12-25T09:57:26.255Z,61.56
2022-12-25T10:00:08.599Z,62.45
2022-12-25T10:03:24.337Z,62.82
2022-12-25T10:06:34.514Z,62.18
2022-12-25T10:09:40.363Z,60.48
2022-12-25T10:12:35.605Z,61.00
2022-12-25T10:15:53.260Z,60.42
2022-12-25T10:19:08.164Z,61.17
2022-12-25T10:22:03.162Z,61.24
2022-12-25T10:24:54.488Z,61.97
2022-12-25T10:27:49.156Z,62.42
2022-12-25T10:30:33.804Z,62.42
2022-12-25T10:33:23.212Z,62.67
2022-12-25T10:36:07.944Z,62.34
2022-12-25T10:38:57.388Z,64.19
2022-12-25T10:42:06.671Z,63.95
2022-12-25T10:45:17.348Z,63.67
2022-12-25T10:48:15.567Z,64.92
2022-12-25T10:50:58.276Z,65.24
2022-12-25T10:53:51.655Z,64.73
2022-12-25T10:56:34.194Z,64.58
2022-12-25T10:59:23.235Z,64.36
2022-12-25T11:02:27.438Z,65.24
2022-12-25T11:05:19.567Z,65.34
2022-12-25T11:08:03.305Z,65.76
2022-12-25T11:10:52.111Z,64.79
2022-12-25T11:13:44.163Z,63.96
2022-12-25T11:16:41.161Z,66.10
2022-12-25T11:19:36.354Z,64.27
2022-12-25T11:22:20.315Z,65.63
2022-12-25T11:25:09.212Z,64.77
2022-12-25T11:28:14.524Z,66.61
2022-12-25T11:31:03.610Z,66.11
2022-12-25T11:33:54.375Z,66.22
2022-12-25T11:36:53.291Z,65.65
2022-12-25T11:39:41.386Z,66.31
2022-12-25T11:42:42.337Z,65.71
2022-12-25T11:45:50.223Z,66.32
2022-12-25T11:48:45.109Z,65.48
2022-12-25T11:51:28.582Z,64.60
2022-12-25T11:54:35.166Z,64.41
2022-12-25T11:57:19.756Z,66.32
2022-12-25T12:00:14.297Z,66.78
2022-12-25T12:03:10.558Z,67.25
2022-12-25T12:06:06.276Z,67.41
2022-12-25T12:08:49.668Z,67.50
2022-12-25T12:11:56.159Z,67.82
2022-12-25T12:14:56.245Z,66.19
2022-12-25T12:17:38.566Z,67.02
2022-12-25T12:20:49.286Z,67.52
2022-12-25T12:23:43.207Z,69.30
2022-12-25T12:26:35.109Z,68.99
2022-12-25T12:29:34.517Z,69.84
2022-12-25T12:32:43.233Z,70.25
2022-12-25T12:35:39.186Z,68.53
2022-12-25T12:38:35.175Z,68.13
2022-12-25T12:41:26.172Z,67.27
2022-12-25T12:44:12.691Z,67.38
2022-12-25T12:47:04.147Z,67.83
2022-12-25T12:49:46.596Z,67.41
2022-12-25T12:52:47.351Z,67.95
2022-12-25T12:55:43.562Z,67.83
2022-12-25T12:58:57.326Z,68.65
2022-12-25T13:01:59.673Z,68.90
2022-12-25T13:04:57.283Z,69.68
2022-12-25T13:07:45.853Z,69.18
2022-12-25T13:10:47.228Z,69.76
2022-12-25T13:13:43.669Z,69.77
2022-12-25T13:16:34.239Z,70.41
2022-12-25T13:19:26.950Z,71.51
2022-12-25T13:22:30.264Z,71.25
2022-12-25T13:25:22.577Z,71.80
2022-12-25T13:28:12.265Z,71.31
2022-12-25T13:30:54.603Z,71.76
2022-12-25T13:33:43.222Z,72.08
2022-12-25T13:36:25.562Z,72.48
2022-12-25T13:39:22.261Z,73.02
2022-12-25T13:42:07.569Z,73.70
2022-12-25T13:45:01.265Z,73.50
2022-12-25T13:47:54.926Z,73.31
2022-12-25T13:50:42.285Z,73.12
2022-12-25T13:53:30.588Z,73.31
2022-12-25T13:56:13.244Z,74.39
2022-12-25T13:58:55.417Z,73.96
2022-12-25T14:01:44.359Z,73.66
2022-12-25T14:04:34.978Z,73.33
2022-12-25T14:07:20.282Z,74.40
2022-12-25T14:10:11.504Z,74.49
2022-12-25T14:12:57.122Z,74.58
2022-12-25T14:15:41.170Z,75.23
2022-12-25T14:18:33.174Z,75.03
2022-12-25T14:21:31.658Z,74.49
2022-12-25T14:24:23.182Z,75.11
2022-12-25T14:27:25.203Z,74.15
2022-12-25T14:30:08.663Z,74.76
2022-12-25T14:33:01.271Z,74.39
2022-12-25T14:35:43.605Z,74.04
2022-12-25T14:38:41.215Z,74.46
2022-12-25T14:41:34.660Z,74.82
2022-12-25T14:44:46.255Z,74.63
2022-12-25T14:47:36.255Z,74.48
2022-12-25T14:50:32.210Z,75.96
2022-12-25T14:53:29.524Z,75.79
2022-12-25T14:56:13.149Z,74.95
2022-12-25T14:59:11.159Z,75.17
2022-12-25T15:02:00.431Z,75.51
2022-12-25T15:04:51.462Z,75.04
2022-12-25T15:07:39.149Z,75.45
2022-12-25T15:10:58.824Z,75.62
2022-12-25T15:13:31.097Z,76.21
2022-12-25T15:16:22.419Z,76.03
2022-12-25T15:19:12.344Z,75.66
2022-12-25T15:22:01.485Z,75.59
2022-12-25T15:24:43.241Z,75.42
2022-12-25T15:27:31.443Z,75.35
2022-12-25T15:30:15.261Z,75.33
2022-12-25T15:32:57.417Z,76.13
2022-12-25T15:35:47.142Z,76.13
2022-12-25T15:38:29.363Z,76.37
2022-12-25T15:41:18.314Z,76.14
2022-12-25T15:44:06.564Z,76.17
2022-12-25T15:47:02.559Z,75.95
2022-12-25T15:49:51.575Z,76.15
2022-12-25T15:52:33.279Z,75.47
2022-12-25T15:55:16.535Z,75.56
2022-12-25T15:58:05.225Z,75.81
2022-12-25T16:00:54.243Z,77.22
2022-12-25T16:03:36.582Z,76.25
2022-12-25T16:06:26.108Z,76.47
2022-12-25T16:09:15.096Z,76.25
2022-12-25T16:12:04.288Z,75.54
2022-12-25T16:14:53.089Z,75.12
2022-12-25T16:17:41.486Z,75.58
2022-12-25T16:20:24.113Z,76.40
2022-12-25T16:23:12.493Z,77.45
2022-12-25T16:25:55.088Z,77.75
2022-12-25T16:28:44.232Z,76.15
2022-12-25T16:31:26.566Z,77.27
2022-12-25T16:34:16.195Z,78.28
2022-12-25T16:36:58.467Z,77.75
2022-12-25T16:39:47.216Z,76.48
2022-12-25T16:42:29.429Z,77.17
2022-12-25T16:45:18.200Z,77.68
2022-12-25T16:48:06.495Z,77.48
2022-12-25T16:50:50.200Z,78.38
2022-12-25T16:53:39.094Z,78.04
2022-12-25T16:56:24.135Z,78.14
2022-12-25T16:59:14.116Z,77.66
2022-12-25T17:01:57.048Z,77.84
2022-12-25T17:04:47.153Z,77.49
2022-12-25T17:07:29.362Z,77.97
2022-12-25T17:10:21.237Z,78.19
2022-12-25T17:13:03.460Z,78.33
2022-12-25T17:15:52.161Z,78.16
2022-12-25T17:18:34.373Z,77.85
2022-12-25T17:21:24.183Z,78.00
2022-12-25T17:24:21.091Z,78.35
2022-12-25T17:27:10.173Z,77.89
2022-12-25T17:29:52.480Z,78.32
2022-12-25T17:32:42.234Z,78.32
2022-12-25T17:35:25.572Z,78.14
2022-12-25T17:38:14.055Z,77.73
2022-12-25T17:41:05.043Z,77.00
2022-12-25T17:43:55.245Z,77.56
2022-12-25T17:46:50.142Z,78.94
2022-12-25T17:49:39.039Z,78.13
2022-12-25T17:52:29.506Z,78.04
2022-12-25T17:55:18.444Z,77.36
2022-12-25T17:58:01.532Z,77.05
2022-12-25T18:00:49.409Z,78.02
2022-12-25T18:03:32.336Z,77.31
2022-12-25T18:06:23.532Z,78.46
2022-12-25T18:09:07.112Z,78.34
2022-12-25T18:11:56.214Z,78.56
2022-12-25T18:14:38.474Z,78.30
2022-12-25T18:17:27.040Z,78.49
2022-12-25T18:20:10.524Z,78.16
2022-12-25T18:22:59.287Z,78.63
2022-12-25T18:25:41.586Z,78.86
2022-12-25T18:28:30.238Z,80.62
2022-12-25T18:31:21.522Z,81.46
2022-12-25T18:34:10.216Z,82.01
2022-12-25T18:36:53.439Z,82.69
2022-12-25T18:39:42.146Z,83.00
2022-12-25T18:42:44.127Z,84.76
2022-12-25T18:45:33.116Z,84.79
2022-12-25T18:48:21.479Z,84.38
2022-12-25T18:51:24.218Z,84.68
2022-12-25T18:54:12.395Z,83.47
2022-12-25T18:56:55.564Z,83.77
2022-12-25T18:59:45.050Z,84.71
2022-12-25T19:02:28.324Z,83.78
2022-12-25T19:05:17.414Z,83.76
2022-12-25T19:07:59.125Z,83.92
2022-12-25T19:10:49.070Z,83.43
2022-12-25T19:13:31.895Z,84.07
2022-12-25T19:16:22.159Z,84.71
2022-12-25T19:19:11.998Z,83.95
2022-12-25T19:22:02.425Z,84.33
2022-12-25T19:24:45.248Z,84.48
2022-12-25T19:27:27.329Z,83.47
2022-12-25T19:30:17.044Z,83.19
2022-12-25T19:32:59.447Z,83.48
2022-12-25T19:35:49.195Z,84.80
2022-12-25T19:38:38.072Z,84.31
2022-12-25T19:41:32.215Z,84.29
2022-12-25T19:44:20.398Z,83.92
2022-12-25T19:47:15.111Z,83.40
2022-12-25T19:50:04.155Z,83.46
2022-12-25T19:52:53.025Z,83.04
2022-12-25T19:55:41.470Z,82.55
2022-12-25T19:58:23.106Z,83.26
2022-12-25T20:01:17.226Z,83.75
2022-12-25T20:03:59.477Z,84.51
2022-12-25T20:06:50.157Z,83.81
2022-12-25T20:09:33.687Z,83.37
2022-12-25T20:12:24.069Z,83.06
2022-12-25T20:15:13.190Z,82.08
2022-12-25T20:18:02.623Z,82.71
2022-12-25T20:20:44.093Z,83.36
2022-12-25T20:23:32.347Z,82.39
2022-12-25T20:26:15.196Z,82.34
2022-12-25T20:28:58.445Z,81.77
2022-12-25T20:31:49.197Z,82.28
2022-12-25T20:34:37.373Z,82.12
2022-12-25T20:37:20.055Z,81.76
2022-12-25T20:40:09.058Z,81.91
2022-12-25T20:42:58.031Z,81.71
2022-12-25T20:45:43.681Z,83.08
2022-12-25T20:48:33.233Z,83.38
2022-12-25T20:51:25.501Z,82.15
2022-12-25T20:54:08.237Z,82.87
2022-12-25T20:56:56.458Z,81.97
2022-12-25T20:59:39.182Z,82.10
2022-12-25T21:02:34.263Z,84.18
2022-12-25T21:05:24.188Z,83.29
2022-12-25T21:08:06.403Z,82.72
2022-12-25T21:10:58.071Z,82.39
2022-12-25T21:13:49.092Z,83.67
2022-12-25T21:16:33.801Z,83.01
2022-12-25T21:19:23.176Z,83.06
2022-12-25T21:22:05.420Z,83.06
2022-12-25T21:24:56.187Z,83.92
2022-12-25T21:27:38.387Z,84.85
2022-12-25T21:30:27.138Z,84.67
2022-12-25T21:33:34.134Z,84.71
2022-12-25T21:36:23.526Z,85.22
2022-12-25T21:39:08.040Z,84.59
2022-12-25T21:41:50.308Z,84.38
2022-12-25T21:44:39.275Z,84.63
2022-12-25T21:48:02.543Z,84.36
2022-12-25T21:55:00.785Z,85.51
2022-12-25T21:57:42.089Z,85.83
2022-12-25T22:00:31.808Z,87.18
2022-12-25T22:03:23.372Z,86.03
2022-12-25T22:06:23.922Z,84.33
2022-12-25T22:09:16.140Z,84.20
2022-12-25T22:12:16.867Z,85.24
2022-12-25T22:15:10.772Z,84.28
2022-12-25T22:18:10.508Z,83.85
2022-12-25T22:20:58.866Z,84.86
2022-12-25T22:23:41.221Z,84.70
2022-12-25T22:26:29.774Z,84.65
2022-12-25T22:29:11.298Z,83.61
2022-12-25T22:31:59.817Z,84.30
2022-12-25T22:34:42.327Z,84.56
2022-12-25T22:37:31.024Z,84.04
2022-12-25T22:40:15.420Z,84.08
2022-12-25T22:43:05.014Z,83.70
2022-12-25T22:45:48.344Z,84.08
2022-12-25T22:48:40.154Z,84.09
2022-12-25T22:51:22.459Z,83.90
2022-12-25T22:54:11.105Z,83.36
2022-12-25T22:57:02.022Z,83.83
2022-12-25T22:59:52.441Z,84.92
2022-12-25T23:02:35.415Z,84.35
2022-12-25T23:05:17.396Z,85.56
2022-12-25T23:08:07.137Z,84.93
2022-12-25T23:10:56.023Z,85.02
2022-12-25T23:14:02.995Z,85.07
2022-12-25T23:16:52.381Z,85.70
2022-12-25T23:19:53.090Z,84.85
2022-12-25T23:22:53.444Z,84.80
2022-12-25T23:26:01.100Z,85.13
2022-12-25T23:29:09.905Z,85.62
2022-12-25T23:32:01.357Z,85.11
2022-12-25T23:34:45.650Z,84.44
2022-12-25T23:37:34.091Z,84.49
2022-12-25T23:40:22.976Z,84.25
2022-12-25T23:43:06.407Z,83.74
2022-12-25T23:45:55.088Z,84.91
2022-12-25T23:48:52.013Z,84.68
2022-12-25T23:51:43.000Z,85.28
2022-12-25T23:54:28.327Z,84.16
2022-12-25T23:57:17.108Z,83.89
2022-12-25T23:59:59.648Z,84.41
